SKSP/ADZ METAR and TAF weather

Enter ICAO airport designator
Station Type Date Time Source
SKSP METAR 2020/01/19 14:00 UTC NOAA

SKSP 191400Z 05019KT 9999 FEW017 SCT080 28/23 A2992


Station Type Date Time Source
SKSP Decoded METAR 2020/01/19 14:00 UTC NOAA

San Andres Isla / Sesquicentenario, Colombia (SKSP) 12-35N 081-43W 6M
Jan 19, 2020 - 09:00 AM EST / 2020.01.19 1400 UTC
Wind: from the NE (050 degrees) at 22 MPH (19 KT):0
Visibility: greater than 7 mile(s):0
Sky conditions: partly cloudy
Temperature: 82 F (28 C)
Dew Point: 73 F (23 C)
Relative Humidity: 74%
Pressure (altimeter): 29.92 in. Hg (1013 hPa)
ob: SKSP 191400Z 05019KT 9999 FEW017 SCT080 28/23 A2992
cycle: 14

Station Type Date Time Source
SKSP TAF 2020/01/19 12:50 UTC NOAA

TAF SKSP 191030Z 1912/2012 05018KT 9999 FEW017 SCT080
TEMPO 1912/1914 DZ SCT014TCU
TEMPO 1918/1921 DZ SCT016TCU TX30/1919Z TN26/2011Z

Example: see airport list